createdAt,value
2022-08-25T00:00:11.064Z,100442.75
2022-08-25T00:01:17.066Z,100444.33
2022-08-25T00:02:11.154Z,100439.78
2022-08-25T00:03:11.115Z,100438.43
2022-08-25T00:04:11.088Z,100441.86
2022-08-25T00:05:11.117Z,100442.34
2022-08-25T00:06:11.064Z,100443.02
2022-08-25T00:07:11.072Z,100442.19
2022-08-25T00:08:11.063Z,100440.71
2022-08-25T00:09:11.067Z,100442.32
2022-08-25T00:10:11.067Z,100442.02
2022-08-25T00:11:13.065Z,100440.53
2022-08-25T00:12:11.066Z,100441.54
2022-08-25T00:13:11.068Z,100438.08
2022-08-25T00:14:15.064Z,100438.97
2022-08-25T00:15:11.069Z,100440.14
2022-08-25T00:16:11.130Z,100438.41
2022-08-25T00:17:11.069Z,100440.32
2022-08-25T00:18:19.704Z,100441.76
2022-08-25T00:19:14.093Z,100439.49
2022-08-25T00:20:11.087Z,100439.41
2022-08-25T00:21:11.057Z,100439.12
2022-08-25T00:22:11.059Z,100435.41
2022-08-25T00:23:11.066Z,100436.60
2022-08-25T00:24:11.057Z,100437.01
2022-08-25T00:25:11.059Z,100434.23
2022-08-25T00:26:11.061Z,100429.96
2022-08-25T00:27:11.058Z,100429.86
2022-08-25T00:28:11.224Z,100428.73
2022-08-25T00:29:11.061Z,100428.53
2022-08-25T00:30:11.059Z,100428.30
2022-08-25T00:31:13.088Z,100426.52
2022-08-25T00:32:11.068Z,100427.85
2022-08-25T00:33:11.063Z,100426.22
2022-08-25T00:34:12.062Z,100428.05
2022-08-25T00:35:11.064Z,100427.85
2022-08-25T00:36:11.061Z,100431.53
2022-08-25T00:37:11.058Z,100431.84
2022-08-25T00:38:11.066Z,100430.95
2022-08-25T00:39:11.061Z,100429.37
2022-08-25T00:40:11.103Z,100433.11
2022-08-25T00:41:11.061Z,100429.01
2022-08-25T00:42:15.886Z,100430.39
2022-08-25T00:43:13.087Z,100432.72
2022-08-25T00:44:11.061Z,100431.50
2022-08-25T00:45:11.063Z,100429.98
2022-08-25T00:46:11.091Z,100431.28
2022-08-25T00:47:11.064Z,100428.96
2022-08-25T00:48:11.066Z,100431.39
2022-08-25T00:49:25.130Z,100434.90
2022-08-25T00:50:13.074Z,100434.40
2022-08-25T00:51:12.065Z,100437.18
2022-08-25T00:52:16.061Z,100433.07
2022-08-25T00:53:11.059Z,100436.96
2022-08-25T00:54:15.071Z,100436.75
2022-08-25T00:55:18.066Z,100438.39
2022-08-25T00:56:11.062Z,100438.16
2022-08-25T00:57:12.070Z,100435.94
2022-08-25T00:58:18.099Z,100435.23
2022-08-25T00:59:11.066Z,100438.37
2022-08-25T01:00:19.065Z,100433.07
2022-08-25T01:01:11.102Z,100434.93
2022-08-25T01:02:13.972Z,100436.62
2022-08-25T01:03:11.065Z,100437.11
2022-08-25T01:04:11.065Z,100434.98
2022-08-25T01:05:11.065Z,100435.94
2022-08-25T01:06:11.065Z,100435.26
2022-08-25T01:07:17.484Z,100435.46
2022-08-25T01:08:13.081Z,100432.51
2022-08-25T01:09:11.071Z,100433.42
2022-08-25T01:10:11.065Z,100435.56
2022-08-25T01:11:11.068Z,100434.54
2022-08-25T01:12:11.067Z,100437.66
2022-08-25T01:13:20.064Z,100437.81
2022-08-25T01:14:11.067Z,100440.81
2022-08-25T01:15:11.073Z,100440.75
2022-08-25T01:16:11.142Z,100438.50
2022-08-25T01:17:11.064Z,100439.97
2022-08-25T01:18:11.069Z,100441.88
2022-08-25T01:19:15.414Z,100437.96
2022-08-25T01:20:11.066Z,100438.89
2022-08-25T01:21:11.056Z,100442.95
2022-08-25T01:22:11.059Z,100441.80
2022-08-25T01:23:11.056Z,100441.95
2022-08-25T01:24:14.059Z,100439.86
2022-08-25T01:25:21.059Z,100435.06
2022-08-25T01:26:16.059Z,100438.64
2022-08-25T01:27:11.057Z,100443.54
2022-08-25T01:28:11.058Z,100442.43
2022-08-25T01:29:15.059Z,100441.43
2022-08-25T01:30:11.059Z,100446.04
2022-08-25T01:31:24.203Z,100444.06
2022-08-25T01:32:14.092Z,100442.30
2022-08-25T01:33:11.060Z,100443.30
2022-08-25T01:34:11.058Z,100448.52
2022-08-25T01:35:11.058Z,100447.98
2022-08-25T01:36:11.060Z,100447.76
2022-08-25T01:37:13.161Z,100443.66
2022-08-25T01:38:11.059Z,100442.35
2022-08-25T01:39:11.059Z,100443.23
2022-08-25T01:40:11.123Z,100444.89
2022-08-25T01:41:11.061Z,100442.46
2022-08-25T01:42:18.062Z,100442.88
2022-08-25T01:43:21.061Z,100443.72
2022-08-25T01:44:12.397Z,100438.03
2022-08-25T01:45:13.078Z,100442.59
2022-08-25T01:46:11.114Z,100439.22
2022-08-25T01:47:11.060Z,100438.74
2022-08-25T01:48:11.060Z,100442.08
2022-08-25T01:49:11.064Z,100446.22
2022-08-25T01:50:11.061Z,100447.68
2022-08-25T01:51:11.060Z,100449.14
2022-08-25T01:52:21.439Z,100447.23
2022-08-25T01:53:19.062Z,100446.63
2022-08-25T01:54:11.061Z,100447.73
2022-08-25T01:55:11.061Z,100451.36
2022-08-25T01:56:14.064Z,100454.66
2022-08-25T01:57:11.061Z,100452.68
2022-08-25T01:58:11.064Z,100453.37
2022-08-25T01:59:11.071Z,100454.50
2022-08-25T02:00:11.065Z,100453.75
2022-08-25T02:01:13.119Z,100456.98
2022-08-25T02:02:11.080Z,100457.39
2022-08-25T02:03:18.768Z,100457.30
2022-08-25T02:04:13.364Z,100453.27
2022-08-25T02:05:13.067Z,100452.40
2022-08-25T02:06:13.064Z,100453.16
2022-08-25T02:07:11.065Z,100451.33
2022-08-25T02:08:11.064Z,100450.08
2022-08-25T02:09:13.065Z,100451.11
2022-08-25T02:10:11.064Z,100450.95
2022-08-25T02:11:15.066Z,100449.46
2022-08-25T02:12:11.073Z,100448.07
2022-08-25T02:13:11.064Z,100449.88
2022-08-25T02:14:11.065Z,100449.26
2022-08-25T02:15:11.072Z,100446.21
2022-08-25T02:16:14.142Z,100448.21
2022-08-25T02:17:11.068Z,100446.30
2022-08-25T02:18:11.073Z,100443.52
2022-08-25T02:19:11.068Z,100444.19
2022-08-25T02:20:11.064Z,100439.70
2022-08-25T02:21:11.060Z,100440.52
2022-08-25T02:22:11.057Z,100436.26
2022-08-25T02:23:11.056Z,100438.43
2022-08-25T02:24:11.058Z,100437.50
2022-08-25T02:25:11.061Z,100434.61
2022-08-25T02:26:11.056Z,100433.54
2022-08-25T02:27:11.058Z,100432.07
2022-08-25T02:28:11.068Z,100434.73
2022-08-25T02:29:11.060Z,100434.93
2022-08-25T02:30:11.056Z,100432.05
2022-08-25T02:31:11.119Z,100431.19
2022-08-25T02:32:11.060Z,100430.97
2022-08-25T02:33:11.061Z,100430.35
2022-08-25T02:34:11.058Z,100426.83
2022-08-25T02:35:11.060Z,100423.82
2022-08-25T02:36:11.058Z,100421.77
2022-08-25T02:37:11.060Z,100420.34
2022-08-25T02:38:11.068Z,100420.14
2022-08-25T02:39:11.059Z,100422.22
2022-08-25T02:40:11.125Z,100423.13
2022-08-25T02:41:15.069Z,100424.23
2022-08-25T02:42:11.063Z,100423.38
2022-08-25T02:43:11.061Z,100421.91
2022-08-25T02:44:11.060Z,100424.50
2022-08-25T02:45:11.062Z,100422.48
2022-08-25T02:46:11.125Z,100423.82
2022-08-25T02:47:11.061Z,100419.65
2022-08-25T02:48:11.063Z,100418.32
2022-08-25T02:49:11.060Z,100421.09
2022-08-25T02:50:11.063Z,100424.43
2022-08-25T02:51:11.063Z,100426.39
2022-08-25T02:52:11.062Z,100428.59
2022-08-25T02:53:11.065Z,100428.87
2022-08-25T02:54:11.070Z,100430.18
2022-08-25T02:55:11.062Z,100427.15
2022-08-25T02:56:11.065Z,100427.51
2022-08-25T02:57:11.071Z,100427.49
2022-08-25T02:58:11.066Z,100429.32
2022-08-25T02:59:11.066Z,100427.83
2022-08-25T03:00:11.070Z,100430.04
2022-08-25T03:01:11.103Z,100426.72
2022-08-25T03:02:11.061Z,100428.93
2022-08-25T03:03:11.066Z,100431.92
2022-08-25T03:04:11.066Z,100429.37
2022-08-25T03:05:11.104Z,100425.38
2022-08-25T03:06:11.071Z,100427.51
2022-08-25T03:07:11.066Z,100426.05
2022-08-25T03:08:11.061Z,100426.45
2022-08-25T03:09:11.068Z,100423.85
2022-08-25T03:10:15.064Z,100425.40
2022-08-25T03:11:11.063Z,100423.04
2022-08-25T03:12:11.066Z,100424.84
2022-08-25T03:13:11.066Z,100422.15
2022-08-25T03:14:11.066Z,100422.25
2022-08-25T03:15:12.892Z,100422.39
2022-08-25T03:16:12.430Z,100422.34
2022-08-25T03:17:11.152Z,100418.51
2022-08-25T03:18:11.067Z,100417.78
2022-08-25T03:19:11.074Z,100416.86
2022-08-25T03:20:11.068Z,100420.85
2022-08-25T03:21:11.059Z,100420.26
2022-08-25T03:22:11.064Z,100419.27
2022-08-25T03:23:11.055Z,100416.88
2022-08-25T03:24:11.062Z,100419.00
2022-08-25T03:25:15.069Z,100415.56
2022-08-25T03:26:15.058Z,100416.24
2022-08-25T03:27:11.056Z,100414.53
2022-08-25T03:28:11.060Z,100415.57
2022-08-25T03:29:11.064Z,100419.53
2022-08-25T03:30:11.061Z,100417.17
2022-08-25T03:31:11.061Z,100419.81
2022-08-25T03:32:11.143Z,100414.24
2022-08-25T03:33:11.060Z,100415.23
2022-08-25T03:34:11.062Z,100413.25
2022-08-25T03:35:11.066Z,100410.00
2022-08-25T03:36:11.061Z,100409.76
2022-08-25T03:37:12.063Z,100408.86
2022-08-25T03:38:11.062Z,100408.36
2022-08-25T03:39:12.060Z,100409.45
2022-08-25T03:40:15.324Z,100410.76
2022-08-25T03:41:17.064Z,100404.71
2022-08-25T03:42:11.067Z,100402.83
2022-08-25T03:43:11.060Z,100403.40
2022-08-25T03:44:11.061Z,100401.21
2022-08-25T03:45:11.063Z,100398.84
2022-08-25T03:46:15.153Z,100396.05
2022-08-25T03:47:11.061Z,100393.52
2022-08-25T03:48:11.068Z,100390.45
2022-08-25T03:49:12.060Z,100383.96
2022-08-25T03:50:11.064Z,100380.02
2022-08-25T03:51:11.069Z,100378.68
2022-08-25T03:52:11.063Z,100375.27
2022-08-25T03:53:11.058Z,100371.67
2022-08-25T03:54:11.071Z,100369.67
2022-08-25T03:55:11.063Z,100376.59
2022-08-25T03:56:11.059Z,100375.39
2022-08-25T03:57:11.065Z,100381.71
2022-08-25T03:58:11.063Z,100379.68
2022-08-25T03:59:12.060Z,100378.81
2022-08-25T04:00:11.065Z,100378.91
2022-08-25T04:01:11.121Z,100376.12
2022-08-25T04:02:11.103Z,100379.89
2022-08-25T04:03:11.063Z,100378.58
2022-08-25T04:04:11.066Z,100378.90
2022-08-25T04:05:11.065Z,100376.23
2022-08-25T04:06:11.063Z,100373.94
2022-08-25T04:07:11.064Z,100374.59
2022-08-25T04:08:11.065Z,100372.28
2022-08-25T04:09:11.064Z,100367.87
2022-08-25T04:10:11.065Z,100364.53
2022-08-25T04:11:14.063Z,100363.47
2022-08-25T04:12:11.066Z,100365.47
2022-08-25T04:13:11.066Z,100370.83
2022-08-25T04:14:15.758Z,100369.97
2022-08-25T04:15:13.134Z,100376.59
2022-08-25T04:16:15.110Z,100372.85
2022-08-25T04:17:11.063Z,100373.56
2022-08-25T04:18:11.068Z,100370.24
2022-08-25T04:19:11.078Z,100373.52
2022-08-25T04:20:11.065Z,100372.44
2022-08-25T04:21:11.059Z,100374.59
2022-08-25T04:22:11.064Z,100376.03
2022-08-25T04:23:11.060Z,100374.16
2022-08-25T04:24:11.053Z,100371.80
2022-08-25T04:25:11.060Z,100371.79
2022-08-25T04:26:14.057Z,100372.69
2022-08-25T04:27:11.058Z,100369.39
2022-08-25T04:28:11.058Z,100371.27
2022-08-25T04:29:11.064Z,100371.96
2022-08-25T04:30:11.054Z,100373.26
2022-08-25T04:31:11.057Z,100372.47
2022-08-25T04:32:11.097Z,100373.44
2022-08-25T04:33:11.083Z,100371.45
2022-08-25T04:34:29.446Z,100368.78
2022-08-25T04:35:13.370Z,100372.91
2022-08-25T04:36:12.413Z,100374.08
2022-08-25T04:37:11.060Z,100372.27
2022-08-25T04:38:11.067Z,100376.37
2022-08-25T04:39:11.059Z,100374.97
2022-08-25T04:40:11.115Z,100377.03
2022-08-25T04:41:11.081Z,100373.09
2022-08-25T04:42:11.062Z,100369.15
2022-08-25T04:43:11.056Z,100371.91
2022-08-25T04:44:11.068Z,100373.11
2022-08-25T04:45:11.063Z,100377.73
2022-08-25T04:46:12.110Z,100380.19
2022-08-25T04:47:11.064Z,100384.03
2022-08-25T04:48:11.067Z,100383.38
2022-08-25T04:49:11.059Z,100383.69
2022-08-25T04:50:11.061Z,100385.27
2022-08-25T04:51:12.063Z,100383.23
2022-08-25T04:52:13.139Z,100386.52
2022-08-25T04:53:11.065Z,100389.89
2022-08-25T04:54:12.069Z,100389.78
2022-08-25T04:55:11.064Z,100394.05
2022-08-25T04:56:14.058Z,100397.27
2022-08-25T04:57:11.062Z,100401.34
2022-08-25T04:58:14.727Z,100400.88
2022-08-25T04:59:14.197Z,100405.56
2022-08-25T05:00:11.064Z,100405.39
2022-08-25T05:01:11.193Z,100406.71
2022-08-25T05:02:11.061Z,100403.84
2022-08-25T05:03:11.065Z,100408.03
2022-08-25T05:04:14.616Z,100408.19
2022-08-25T05:05:13.355Z,100412.59
2022-08-25T05:06:15.673Z,100414.29
2022-08-25T05:07:13.344Z,100413.16
2022-08-25T05:08:11.071Z,100415.00
2022-08-25T05:09:11.063Z,100415.12
2022-08-25T05:10:11.062Z,100416.23
2022-08-25T05:11:11.087Z,100421.24
2022-08-25T05:12:11.067Z,100420.71
2022-08-25T05:13:11.062Z,100420.42
2022-08-25T05:14:15.072Z,100425.06
2022-08-25T05:15:15.069Z,100420.58
2022-08-25T05:16:11.489Z,100424.40
2022-08-25T05:17:11.065Z,100420.87
2022-08-25T05:18:11.074Z,100418.86
2022-08-25T05:19:11.068Z,100418.98
2022-08-25T05:20:11.067Z,100417.84
2022-08-25T05:21:18.065Z,100417.91
2022-08-25T05:22:11.059Z,100424.11
2022-08-25T05:23:11.056Z,100431.29
2022-08-25T05:24:11.057Z,100432.41
2022-08-25T05:25:11.065Z,100431.70
2022-08-25T05:26:14.485Z,100435.47
2022-08-25T05:27:13.096Z,100434.50
2022-08-25T05:28:11.058Z,100434.16
2022-08-25T05:29:11.063Z,100437.12
2022-08-25T05:30:11.058Z,100434.74
2022-08-25T05:31:12.115Z,100433.28
2022-08-25T05:32:11.136Z,100431.37
2022-08-25T05:33:11.058Z,100431.22
2022-08-25T05:34:11.058Z,100431.84
2022-08-25T05:35:11.060Z,100427.45
2022-08-25T05:36:11.059Z,100424.62
2022-08-25T05:37:12.243Z,100423.18
2022-08-25T05:38:15.353Z,100421.78
2022-08-25T05:39:11.124Z,100426.96
2022-08-25T05:40:11.109Z,100423.97
2022-08-25T05:41:11.071Z,100424.90
2022-08-25T05:42:11.060Z,100421.05
2022-08-25T05:43:11.061Z,100418.96
2022-08-25T05:44:11.070Z,100415.80
2022-08-25T05:45:11.060Z,100413.87
2022-08-25T05:46:13.465Z,100412.58
2022-08-25T05:47:11.064Z,100409.50
2022-08-25T05:48:11.063Z,100408.52
2022-08-25T05:49:11.058Z,100406.41
2022-08-25T05:50:11.068Z,100410.11
2022-08-25T05:51:11.064Z,100409.63
2022-08-25T05:52:14.275Z,100410.35
2022-08-25T05:53:13.344Z,100412.37
2022-08-25T05:54:11.070Z,100412.77
2022-08-25T05:55:11.060Z,100408.77
2022-08-25T05:56:11.074Z,100411.62
2022-08-25T05:57:11.063Z,100406.39
2022-08-25T05:58:11.060Z,100407.42
2022-08-25T05:59:11.063Z,100409.56
2022-08-25T06:00:11.067Z,100407.07
2022-08-25T06:01:19.139Z,100407.44
2022-08-25T06:02:15.066Z,100409.15
2022-08-25T06:03:11.126Z,100410.48
2022-08-25T06:04:11.064Z,100411.52
2022-08-25T06:05:15.060Z,100413.45
2022-08-25T06:06:11.064Z,100413.59
2022-08-25T06:07:11.066Z,100413.25
2022-08-25T06:08:11.063Z,100414.88
2022-08-25T06:09:12.068Z,100420.02
2022-08-25T06:10:11.081Z,100418.74
2022-08-25T06:11:11.063Z,100421.96
2022-08-25T06:12:11.078Z,100416.88
2022-08-25T06:13:11.067Z,100419.40
2022-08-25T06:14:11.081Z,100419.45
2022-08-25T06:15:11.066Z,100417.11
2022-08-25T06:16:11.128Z,100424.52
2022-08-25T06:17:11.064Z,100424.16
2022-08-25T06:18:11.067Z,100426.73
2022-08-25T06:19:11.084Z,100426.41
2022-08-25T06:20:22.043Z,100426.23
2022-08-25T06:21:14.056Z,100426.94
2022-08-25T06:22:11.056Z,100427.30
2022-08-25T06:23:11.058Z,100425.23
2022-08-25T06:24:15.362Z,100428.41
2022-08-25T06:25:11.059Z,100426.89
2022-08-25T06:26:19.055Z,100427.80
2022-08-25T06:27:13.085Z,100424.99
2022-08-25T06:28:11.062Z,100425.34
2022-08-25T06:29:11.066Z,100424.74
2022-08-25T06:30:11.063Z,100427.38
2022-08-25T06:31:11.110Z,100425.93
2022-08-25T06:32:11.067Z,100427.69
2022-08-25T06:33:11.062Z,100429.75
2022-08-25T06:34:11.063Z,100432.37
2022-08-25T06:35:11.064Z,100434.01
2022-08-25T06:36:11.063Z,100434.08
2022-08-25T06:37:11.063Z,100433.30
2022-08-25T06:38:11.065Z,100431.03
2022-08-25T06:39:11.060Z,100427.63
2022-08-25T06:40:11.137Z,100430.32
2022-08-25T06:41:11.061Z,100428.51
2022-08-25T06:42:11.061Z,100430.61
2022-08-25T06:43:12.061Z,100431.19
2022-08-25T06:44:11.077Z,100432.23
2022-08-25T06:45:11.063Z,100432.73
2022-08-25T06:46:14.060Z,100431.63
2022-08-25T06:47:11.101Z,100436.40
2022-08-25T06:48:11.064Z,100433.63
2022-08-25T06:49:11.060Z,100436.17
2022-08-25T06:50:11.063Z,100433.64
2022-08-25T06:51:13.960Z,100435.26
2022-08-25T06:52:11.060Z,100438.96
2022-08-25T06:53:11.065Z,100433.33
2022-08-25T06:54:11.071Z,100435.65
2022-08-25T06:55:11.066Z,100433.11
2022-08-25T06:56:11.067Z,100431.74
2022-08-25T06:57:11.070Z,100435.72
2022-08-25T06:58:11.281Z,100433.88
2022-08-25T06:59:11.061Z,100435.66
2022-08-25T07:00:11.071Z,100437.06
2022-08-25T07:01:20.132Z,100438.87
2022-08-25T07:02:11.110Z,100437.92
2022-08-25T07:03:11.093Z,100441.39
2022-08-25T07:04:12.916Z,100443.50
2022-08-25T07:05:17.143Z,100439.76
2022-08-25T07:06:14.082Z,100440.67
2022-08-25T07:07:11.072Z,100438.35
2022-08-25T07:08:11.064Z,100439.93
2022-08-25T07:09:11.065Z,100435.67
2022-08-25T07:10:11.075Z,100437.66
2022-08-25T07:11:15.910Z,100438.87
2022-08-25T07:12:13.092Z,100433.93
2022-08-25T07:13:11.069Z,100435.61
2022-08-25T07:14:11.069Z,100438.93
2022-08-25T07:15:19.687Z,100434.78
2022-08-25T07:16:13.378Z,100434.80
2022-08-25T07:17:12.661Z,100440.43
2022-08-25T07:18:11.066Z,100438.95
2022-08-25T07:19:11.067Z,100439.37
2022-08-25T07:20:13.698Z,100443.61
2022-08-25T07:21:11.056Z,100439.76
2022-08-25T07:22:11.059Z,100442.62
2022-08-25T07:23:11.065Z,100443.97
2022-08-25T07:24:11.056Z,100443.42
2022-08-25T07:25:11.064Z,100443.98
2022-08-25T07:26:33.600Z,100447.00
2022-08-25T07:27:13.103Z,100445.45
2022-08-25T07:28:11.061Z,100451.86
2022-08-25T07:29:13.061Z,100449.27
2022-08-25T07:30:11.282Z,100453.82
2022-08-25T07:31:11.087Z,100454.17
2022-08-25T07:32:11.060Z,100457.94
2022-08-25T07:33:11.440Z,100459.79
2022-08-25T07:34:15.062Z,100462.51
2022-08-25T07:35:15.067Z,100465.30
2022-08-25T07:36:11.062Z,100466.52
2022-08-25T07:37:11.059Z,100465.89
2022-08-25T07:38:12.330Z,100470.38
2022-08-25T07:39:11.067Z,100468.61
2022-08-25T07:40:14.180Z,100472.84
2022-08-25T07:41:11.061Z,100471.43
2022-08-25T07:42:12.256Z,100470.57
2022-08-25T07:43:11.066Z,100467.97
2022-08-25T07:44:11.066Z,100472.02
2022-08-25T07:45:11.078Z,100473.21
2022-08-25T07:46:11.124Z,100476.67
2022-08-25T07:47:11.064Z,100475.34
2022-08-25T07:48:11.063Z,100480.50
2022-08-25T07:49:16.654Z,100484.79
2022-08-25T07:50:13.085Z,100487.36
2022-08-25T07:51:11.065Z,100486.68
2022-08-25T07:52:11.062Z,100493.06
2022-08-25T07:53:11.215Z,100491.14
2022-08-25T07:54:11.064Z,100494.16
2022-08-25T07:55:11.348Z,100491.78
2022-08-25T07:56:13.065Z,100494.62
2022-08-25T07:57:11.071Z,100495.20
2022-08-25T07:58:11.063Z,100495.03
2022-08-25T07:59:12.533Z,100499.75
2022-08-25T08:00:11.084Z,100500.39
2022-08-25T08:01:18.101Z,100501.45
2022-08-25T08:02:18.039Z,100502.59
2022-08-25T08:03:29.446Z,100504.51
2022-08-25T08:04:13.123Z,100503.48
2022-08-25T08:05:11.071Z,100508.31
2022-08-25T08:06:11.067Z,100509.55
2022-08-25T08:07:12.014Z,100507.65
2022-08-25T08:08:11.065Z,100513.81
2022-08-25T08:09:11.064Z,100511.23
2022-08-25T08:10:42.246Z,100509.39
2022-08-25T08:11:21.108Z,100511.16
2022-08-25T08:12:11.064Z,100510.65
2022-08-25T08:13:12.059Z,100511.65
2022-08-25T08:14:13.352Z,100510.17
2022-08-25T08:15:11.065Z,100509.84
2022-08-25T08:16:11.298Z,100507.94
2022-08-25T08:17:11.072Z,100505.87
2022-08-25T08:18:11.074Z,100506.32
2022-08-25T08:19:11.068Z,100506.09
2022-08-25T08:20:12.066Z,100505.95
2022-08-25T08:21:14.066Z,100507.67
2022-08-25T08:22:13.086Z,100509.06
2022-08-25T08:23:11.056Z,100506.34
2022-08-25T08:24:25.178Z,100510.24
2022-08-25T08:25:18.575Z,100515.48
2022-08-25T08:26:13.066Z,100514.49
2022-08-25T08:27:11.059Z,100512.05
2022-08-25T08:28:11.086Z,100511.99
2022-08-25T08:29:11.060Z,100506.68
2022-08-25T08:30:11.057Z,100501.71
2022-08-25T08:31:11.128Z,100502.14
2022-08-25T08:32:11.060Z,100500.89
2022-08-25T08:33:11.825Z,100500.60
2022-08-25T08:34:11.060Z,100498.68
2022-08-25T08:35:11.061Z,100501.14
2022-08-25T08:36:11.061Z,100500.86
2022-08-25T08:37:11.058Z,100501.09
2022-08-25T08:38:15.986Z,100503.78
2022-08-25T08:39:13.182Z,100506.10
2022-08-25T08:40:11.093Z,100501.46
2022-08-25T08:41:25.093Z,100502.02
2022-08-25T08:42:23.062Z,100504.23
2022-08-25T08:43:18.598Z,100502.31
2022-08-25T08:44:19.060Z,100504.29
2022-08-25T08:45:19.063Z,100505.61
2022-08-25T08:46:11.097Z,100504.81
2022-08-25T08:47:21.062Z,100504.26
2022-08-25T08:48:21.059Z,100504.96
2022-08-25T08:49:19.058Z,100504.59
2022-08-25T08:50:23.979Z,100504.15
2022-08-25T08:51:23.082Z,100504.84
2022-08-25T08:52:13.064Z,100504.63
2022-08-25T08:53:21.661Z,100503.39
2022-08-25T08:54:18.058Z,100500.83
2022-08-25T08:55:17.063Z,100498.75
2022-08-25T08:56:18.071Z,100495.39
2022-08-25T08:57:14.065Z,100496.54
2022-08-25T08:58:16.061Z,100497.81
2022-08-25T08:59:19.071Z,100495.83
2022-08-25T09:00:11.070Z,100494.20
2022-08-25T09:01:17.102Z,100494.86
2022-08-25T09:02:38.615Z,100492.48
2022-08-25T09:03:21.415Z,100492.41
2022-08-25T09:04:18.071Z,100493.89
2022-08-25T09:05:12.065Z,100492.51
2022-08-25T09:06:21.081Z,100495.16
2022-08-25T09:07:17.065Z,100491.27
2022-08-25T09:08:11.329Z,100492.78
2022-08-25T09:09:12.065Z,100489.57
2022-08-25T09:10:11.063Z,100490.85
2022-08-25T09:11:20.066Z,100495.70
2022-08-25T09:12:21.094Z,100494.82
2022-08-25T09:13:19.066Z,100494.56
2022-08-25T09:14:19.066Z,100494.05
2022-08-25T09:15:21.085Z,100495.04
2022-08-25T09:16:33.728Z,100494.41
2022-08-25T09:17:21.628Z,100500.66
2022-08-25T09:18:23.093Z,100495.54
2022-08-25T09:19:21.404Z,100496.32
2022-08-25T09:20:19.424Z,100492.75
2022-08-25T09:21:21.060Z,100490.43
2022-08-25T09:22:35.909Z,100490.94
2022-08-25T09:23:21.075Z,100491.19
2022-08-25T09:24:19.073Z,100492.96
2022-08-25T09:25:29.447Z,100493.31
2022-08-25T09:26:21.064Z,100489.97
2022-08-25T09:27:19.057Z,100488.89
2022-08-25T09:28:21.088Z,100487.52
2022-08-25T09:29:16.957Z,100489.62
2022-08-25T09:30:17.059Z,100490.30
2022-08-25T09:31:19.089Z,100490.12
2022-08-25T09:32:11.058Z,100490.46
2022-08-25T09:33:20.903Z,100489.66
2022-08-25T09:34:17.066Z,100492.20
2022-08-25T09:35:19.061Z,100494.10
2022-08-25T09:36:11.057Z,100491.46
2022-08-25T09:37:11.061Z,100492.06
2022-08-25T09:38:11.067Z,100495.50
2022-08-25T09:39:11.065Z,100492.12
2022-08-25T09:40:11.141Z,100495.55
2022-08-25T09:41:11.067Z,100494.12
2022-08-25T09:42:11.061Z,100494.28
2022-08-25T09:43:19.074Z,100490.18
2022-08-25T09:44:19.066Z,100486.27
2022-08-25T09:45:13.063Z,100485.08
2022-08-25T09:46:16.160Z,100480.94
2022-08-25T09:47:19.065Z,100473.77
2022-08-25T09:48:19.062Z,100473.05
2022-08-25T09:49:14.067Z,100470.18
2022-08-25T09:50:18.640Z,100468.88
2022-08-25T09:51:19.058Z,100466.16
2022-08-25T09:52:19.062Z,100465.31
2022-08-25T09:53:17.608Z,100465.09
2022-08-25T09:54:19.063Z,100466.86
2022-08-25T09:55:19.062Z,100467.84
2022-08-25T09:56:11.059Z,100471.41
2022-08-25T09:57:15.071Z,100475.89
2022-08-25T09:58:19.063Z,100473.27
2022-08-25T09:59:19.073Z,100476.62
2022-08-25T10:00:15.059Z,100479.90
2022-08-25T10:01:15.115Z,100477.95
2022-08-25T10:02:19.063Z,100479.80
2022-08-25T10:03:22.713Z,100482.50
2022-08-25T10:04:18.882Z,100481.00
2022-08-25T10:05:23.190Z,100482.25
2022-08-25T10:06:14.065Z,100486.10
2022-08-25T10:07:19.065Z,100483.42
2022-08-25T10:08:18.329Z,100487.52
2022-08-25T10:09:17.083Z,100483.52
2022-08-25T10:10:21.072Z,100481.01
2022-08-25T10:11:19.065Z,100483.16
2022-08-25T10:12:19.065Z,100478.57
2022-08-25T10:13:17.062Z,100476.88
2022-08-25T10:14:21.106Z,100477.56
2022-08-25T10:15:29.724Z,100479.23
2022-08-25T10:16:24.469Z,100479.41
2022-08-25T10:17:19.065Z,100482.09
2022-08-25T10:18:19.066Z,100488.83
2022-08-25T10:19:19.065Z,100484.41
2022-08-25T10:20:21.065Z,100489.96
2022-08-25T10:21:15.064Z,100493.75
2022-08-25T10:22:11.214Z,100493.30
2022-08-25T10:23:14.057Z,100497.85
2022-08-25T10:24:11.058Z,100493.63
2022-08-25T10:25:12.060Z,100494.64
2022-08-25T10:26:21.056Z,100496.36
2022-08-25T10:27:22.059Z,100493.59
2022-08-25T10:28:19.061Z,100495.88
2022-08-25T10:29:21.066Z,100496.41
2022-08-25T10:30:20.059Z,100495.80
2022-08-25T10:31:19.152Z,100498.06
2022-08-25T10:32:19.054Z,100493.95
2022-08-25T10:33:19.062Z,100491.04
2022-08-25T10:34:21.067Z,100493.78
2022-08-25T10:35:19.068Z,100494.70
2022-08-25T10:36:20.306Z,100493.44
2022-08-25T10:37:22.059Z,100492.93
2022-08-25T10:38:21.706Z,100492.60
2022-08-25T10:39:34.626Z,100491.25
2022-08-25T10:40:22.078Z,100492.97
2022-08-25T10:41:19.073Z,100487.07
2022-08-25T10:42:25.897Z,100487.81
2022-08-25T10:43:23.708Z,100487.80
2022-08-25T10:44:22.059Z,100493.32
2022-08-25T10:45:22.018Z,100496.52
2022-08-25T10:46:18.715Z,100496.20
2022-08-25T10:47:19.077Z,100495.80
2022-08-25T10:48:19.062Z,100497.50
2022-08-25T10:49:19.061Z,100495.88
2022-08-25T10:50:19.065Z,100501.53
2022-08-25T10:51:21.499Z,100503.43
2022-08-25T10:52:21.077Z,100503.04
2022-08-25T10:53:19.062Z,100505.08
2022-08-25T10:54:19.059Z,100502.09
2022-08-25T10:55:19.061Z,100503.25
2022-08-25T10:56:16.062Z,100505.84
2022-08-25T10:57:19.075Z,100502.54
2022-08-25T10:58:23.288Z,100504.96
2022-08-25T10:59:21.064Z,100507.71
2022-08-25T11:00:20.059Z,100506.90
2022-08-25T11:01:19.193Z,100503.46
2022-08-25T11:02:21.091Z,100505.03
2022-08-25T11:03:19.063Z,100501.27
2022-08-25T11:04:21.061Z,100499.03
2022-08-25T11:05:24.686Z,100493.65
2022-08-25T11:06:19.100Z,100495.56
2022-08-25T11:07:17.066Z,100499.09
2022-08-25T11:08:17.072Z,100503.79
2022-08-25T11:09:13.065Z,100501.29
2022-08-25T11:10:18.088Z,100502.27
2022-08-25T11:11:20.067Z,100507.01
2022-08-25T11:12:17.073Z,100507.35
2022-08-25T11:13:19.062Z,100508.14
2022-08-25T11:14:19.060Z,100507.64
2022-08-25T11:15:19.067Z,100509.01
2022-08-25T11:16:21.078Z,100511.57
2022-08-25T11:17:18.128Z,100510.42
2022-08-25T11:18:15.002Z,100517.59
2022-08-25T11:19:19.064Z,100516.14
2022-08-25T11:20:19.116Z,100516.86
2022-08-25T11:21:17.058Z,100518.35
2022-08-25T11:22:19.452Z,100524.08
2022-08-25T11:23:21.060Z,100527.93
2022-08-25T11:24:21.060Z,100526.45